Time;durP1;ratioP1;P1;durP2;ratioP2;P2;SDS_P1;SDS_P2;PMS_P1;PMS_P2;Temp;Humidity;BMP_temperature;BMP_pressure;BME280_temperature;BME280_humidity;BME280_pressure;Samples;Min_cycle;Max_cycle;Signal;HPM_P1;HPM_P2
2022/05/03 00:02:25;;;;;;;3.65;3.35;;;11.60;64.50;;;;;;636903;225;26551;-63
2022/05/03 00:05:11;;;;;;;5.18;3.80;;;11.60;65.00;;;;;;637189;224;26531;-63
2022/05/03 00:07:44;;;;;;;4.75;3.90;;;11.50;64.50;;;;;;636896;225;26523;-63
2022/05/03 00:10:13;;;;;;;12.65;4.30;;;11.50;64.50;;;;;;637124;224;26740;-63
2022/05/03 00:12:41;;;;;;;4.10;3.80;;;11.40;64.50;;;;;;637178;225;26769;-62
2022/05/03 00:15:09;;;;;;;4.18;3.83;;;11.40;64.60;;;;;;637162;225;26516;-65
2022/05/03 00:17:37;;;;;;;9.48;4.12;;;11.40;65.20;;;;;;637325;226;26508;-63
2022/05/03 00:20:05;;;;;;;6.75;4.50;;;11.40;64.80;;;;;;637288;225;26519;-65
2022/05/03 00:22:32;;;;;;;7.68;4.18;;;11.30;64.70;;;;;;637290;226;26558;-63
2022/05/03 00:25:00;;;;;;;13.80;4.35;;;11.30;64.70;;;;;;638595;223;26903;-63
2022/05/03 00:27:27;;;;;;;4.00;3.60;;;11.20;64.70;;;;;;638741;225;26503;-63
2022/05/03 00:29:54;;;;;;;6.93;4.25;;;11.20;65.60;;;;;;638327;224;26800;-63
2022/05/03 00:32:22;;;;;;;6.90;3.58;;;11.20;65.90;;;;;;638127;224;26540;-62
2022/05/03 00:34:49;;;;;;;3.80;3.50;;;11.20;65.00;;;;;;637977;225;26514;-62
2022/05/03 00:37:17;;;;;;;3.87;3.58;;;11.20;66.10;;;;;;637962;225;26770;-62
2022/05/03 00:39:45;;;;;;;4.10;3.70;;;11.20;64.90;;;;;;637964;225;26748;-62
2022/05/03 00:42:15;;;;;;;4.10;3.78;;;11.20;64.90;;;;;;637780;225;26783;-62
2022/05/03 00:47:20;;;;;;;5.10;3.85;;;11.10;65.80;;;;;;637679;225;26824;-62
2022/05/03 00:50:00;;;;;;;4.10;3.80;;;11.10;66.20;;;;;;637376;221;26798;-62
2022/05/03 00:52:28;;;;;;;5.85;3.90;;;11.10;66.10;;;;;;637419;223;26592;-61
2022/05/03 00:55:09;;;;;;;6.62;3.70;;;11.10;66.70;;;;;;637943;225;26508;-61
2022/05/03 00:57:52;;;;;;;5.03;3.75;;;11.00;66.20;;;;;;637678;225;26516;-62
2022/05/03 01:00:20;;;;;;;3.87;3.53;;;11.00;66.30;;;;;;634949;225;26583;-61
2022/05/03 01:03:04;;;;;;;3.90;3.60;;;10.90;66.20;;;;;;637159;225;26543;-62
2022/05/03 01:05:32;;;;;;;8.40;3.97;;;10.80;69.00;;;;;;637149;225;26553;-61
2022/05/03 01:08:04;;;;;;;5.53;3.85;;;10.80;68.60;;;;;;636859;223;26523;-61
2022/05/03 01:10:34;;;;;;;3.47;3.28;;;10.80;68.60;;;;;;637147;225;26522;-61
2022/05/03 01:13:02;;;;;;;3.78;3.45;;;10.70;67.40;;;;;;637134;225;26522;-62
2022/05/03 01:15:32;;;;;;;4.37;3.78;;;10.70;67.70;;;;;;637091;225;26528;-61
2022/05/03 01:18:05;;;;;;;3.72;3.42;;;10.70;68.40;;;;;;637104;225;26511;-62
2022/05/03 01:20:50;;;;;;;4.35;3.42;;;10.70;69.10;;;;;;637322;224;26854;-62
2022/05/03 01:23:36;;;;;;;5.15;3.83;;;10.70;69.10;;;;;;636971;223;26556;-62
2022/05/03 01:26:06;;;;;;;4.30;3.55;;;10.70;68.60;;;;;;636608;226;26526;-62
2022/05/03 01:28:59;;;;;;;3.58;3.33;;;10.60;68.40;;;;;;636840;225;26512;-62
2022/05/03 01:31:27;;;;;;;4.10;3.70;;;10.70;68.80;;;;;;634102;225;26503;-61
2022/05/03 01:33:54;;;;;;;3.87;3.45;;;10.60;68.40;;;;;;637333;226;26555;-61
2022/05/03 01:36:25;;;;;;;3.80;3.50;;;10.60;68.80;;;;;;638233;223;26581;-62
2022/05/03 01:38:56;;;;;;;4.18;3.80;;;10.40;68.90;;;;;;640698;218;26549;-62
2022/05/03 01:41:39;;;;;;;4.70;3.70;;;10.40;69.10;;;;;;640006;221;26570;-62
2022/05/03 01:44:12;;;;;;;4.03;3.62;;;10.40;69.30;;;;;;634608;225;26833;-62
2022/05/03 01:46:39;;;;;;;4.05;3.65;;;10.30;69.40;;;;;;648982;220;26570;-61
2022/05/03 01:52:02;;;;;;;3.45;3.15;;;10.00;70.40;;;;;;639232;224;26545;-62
2022/05/03 01:54:55;;;;;;;3.60;3.30;;;10.00;70.50;;;;;;638869;224;26514;-62
2022/05/03 01:57:28;;;;;;;4.07;3.75;;;9.80;72.60;;;;;;636177;224;26537;-61
2022/05/03 01:59:56;;;;;;;4.18;3.78;;;9.80;72.60;;;;;;639115;224;27122;-61
2022/05/03 02:02:27;;;;;;;7.65;3.67;;;9.80;73.80;;;;;;638499;224;26545;-62
2022/05/03 02:04:57;;;;;;;4.43;3.45;;;9.80;73.90;;;;;;638816;224;26722;-62
2022/05/03 02:07:45;;;;;;;4.37;3.60;;;9.90;74.40;;;;;;638974;224;26509;-62
2022/05/03 02:10:34;;;;;;;3.78;3.47;;;9.80;74.20;;;;;;638460;224;26538;-62
2022/05/03 02:13:01;;;;;;;4.28;3.75;;;9.90;73.40;;;;;;638508;224;26811;-62
2022/05/03 02:15:29;;;;;;;3.53;3.22;;;10.00;74.30;;;;;;638259;224;26588;-63
2022/05/03 02:18:05;;;;;;;3.80;3.45;;;10.00;72.10;;;;;;638540;222;26803;-62
2022/05/03 02:20:45;;;;;;;3.90;3.45;;;9.90;74.30;;;;;;638672;222;26570;-62
2022/05/03 02:23:32;;;;;;;4.00;3.58;;;9.90;71.90;;;;;;638820;224;26577;-62
2022/05/03 02:26:17;;;;;;;4.97;3.67;;;9.80;73.80;;;;;;638921;223;26555;-63
2022/05/03 02:28:49;;;;;;;3.95;3.58;;;9.80;74.60;;;;;;636731;225;26794;-63
2022/05/03 02:31:19;;;;;;;3.75;3.45;;;9.80;74.60;;;;;;638659;223;26776;-63
2022/05/03 02:34:01;;;;;;;3.37;3.17;;;9.80;76.40;;;;;;638788;224;26554;-63
2022/05/03 02:36:29;;;;;;;3.30;3.10;;;9.80;76.80;;;;;;635028;224;26582;-63
2022/05/03 02:39:00;;;;;;;3.53;3.22;;;9.80;76.40;;;;;;638866;224;26775;-62
2022/05/03 02:41:28;;;;;;;3.62;3.22;;;9.70;75.10;;;;;;638674;224;26599;-74
2022/05/03 02:43:55;;;;;;;3.65;3.35;;;9.60;73.70;;;;;;638748;224;26575;-75
2022/05/03 02:46:54;;;;;;;3.50;3.20;;;9.60;73.70;;;;;;638933;224;26570;-74
2022/05/03 02:49:20;;;;;;;3.50;3.20;;;9.70;74.10;;;;;;640878;221;26551;-74
2022/05/03 02:51:52;;;;;;;3.42;3.22;;;9.60;72.80;;;;;;639554;224;26810;-74
2022/05/03 02:54:37;;;;;;;3.62;3.37;;;9.70;73.20;;;;;;639999;224;26810;-75
2022/05/03 02:57:07;;;;;;;4.62;3.37;;;9.60;73.20;;;;;;637830;224;26768;-75
2022/05/03 03:02:15;;;;;;;4.37;3.40;;;9.60;75.00;;;;;;639939;224;26506;-74
2022/05/03 03:04:54;;;;;;;3.37;3.10;;;9.50;73.90;;;;;;639000;224;26491;-75
2022/05/03 03:07:21;;;;;;;3.60;3.33;;;9.50;74.10;;;;;;639146;222;26479;-75
2022/05/03 03:10:03;;;;;;;4.93;3.45;;;9.50;74.50;;;;;;639658;224;26725;-75
2022/05/03 03:12:31;;;;;;;3.35;2.87;;;9.60;74.70;;;;;;639642;225;26561;-75
2022/05/03 03:15:04;;;;;;;3.70;3.40;;;9.50;75.20;;;;;;639374;224;26529;-75
2022/05/03 03:17:30;;;;;;;4.18;3.35;;;9.50;76.20;;;;;;639446;224;26926;-75
2022/05/03 03:20:00;;;;;;;3.45;3.15;;;9.40;76.00;;;;;;638979;224;26513;-75
2022/05/03 03:22:29;;;;;;;3.62;3.33;;;9.50;77.50;;;;;;638818;224;27185;-74
2022/05/03 03:24:56;;;;;;;3.47;3.17;;;9.40;77.40;;;;;;638958;224;26562;-74
2022/05/03 03:27:23;;;;;;;3.10;2.90;;;9.40;76.20;;;;;;638898;224;26812;-73
2022/05/03 03:29:51;;;;;;;4.15;3.30;;;9.40;79.20;;;;;;638963;224;26602;-74
2022/05/03 03:32:19;;;;;;;4.25;3.35;;;9.50;79.50;;;;;;638517;223;26615;-75
2022/05/03 03:34:47;;;;;;;3.42;3.15;;;9.50;77.60;;;;;;638887;224;26553;-75
2022/05/03 03:37:14;;;;;;;3.80;3.33;;;9.50;77.60;;;;;;638927;225;26576;-75
2022/05/03 03:39:43;;;;;;;3.45;3.25;;;9.50;77.30;;;;;;638964;224;26539;-75
2022/05/03 03:42:11;;;;;;;4.95;3.37;;;9.40;78.40;;;;;;638915;222;26592;-75
2022/05/03 03:44:38;;;;;;;2.97;2.78;;;9.40;78.40;;;;;;638947;223;26545;-75
2022/05/03 03:47:05;;;;;;;4.43;3.08;;;9.40;75.80;;;;;;638961;224;26571;-75
2022/05/03 03:49:33;;;;;;;3.10;2.85;;;9.50;76.80;;;;;;638917;224;27344;-75
2022/05/03 03:52:00;;;;;;;3.25;2.95;;;9.50;76.80;;;;;;638879;223;26801;-73
2022/05/03 03:54:28;;;;;;;3.37;3.12;;;9.50;76.70;;;;;;638941;224;26564;-74
2022/05/03 03:56:56;;;;;;;4.15;3.10;;;9.50;76.80;;;;;;638905;224;26599;-73
2022/05/03 03:59:24;;;;;;;2.87;2.65;;;9.40;76.70;;;;;;639958;223;26573;-73
2022/05/03 04:01:51;;;;;;;3.00;2.80;;;9.40;77.10;;;;;;640406;223;26550;-75
2022/05/03 04:04:18;;;;;;;3.30;3.10;;;9.40;76.30;;;;;;640069;223;26771;-75
2022/05/03 04:06:45;;;;;;;4.43;3.30;;;9.40;80.10;;;;;;639932;223;26523;-74
2022/05/03 04:09:12;;;;;;;3.60;3.05;;;9.40;78.60;;;;;;639763;224;26810;-74
2022/05/03 04:11:45;;;;;;;3.33;3.12;;;9.40;79.40;;;;;;639486;223;26554;-74
2022/05/03 04:14:13;;;;;;;2.90;2.70;;;9.40;77.30;;;;;;639613;225;26506;-74
2022/05/03 04:16:40;;;;;;;3.53;3.15;;;9.50;78.50;;;;;;639522;224;26519;-75
2022/05/03 04:19:09;;;;;;;3.40;3.10;;;9.70;81.80;;;;;;639232;224;26517;-74
2022/05/03 04:21:36;;;;;;;3.90;2.85;;;9.70;81.10;;;;;;639208;224;26849;-74
2022/05/03 04:24:03;;;;;;;2.90;2.70;;;9.90;81.50;;;;;;639300;225;26518;-74
2022/05/03 04:26:30;;;;;;;3.15;2.80;;;10.00;76.80;;;;;;639320;224;26519;-74
2022/05/03 04:28:58;;;;;;;3.08;2.78;;;10.10;77.20;;;;;;639293;224;26736;-74
2022/05/03 04:31:26;;;;;;;3.00;2.80;;;10.30;78.50;;;;;;639174;222;26760;-74
2022/05/03 04:33:53;;;;;;;2.83;2.62;;;10.40;79.20;;;;;;639275;224;26538;-74
2022/05/03 04:36:21;;;;;;;3.30;3.00;;;10.50;76.00;;;;;;639022;224;26584;-74
2022/05/03 04:38:48;;;;;;;3.00;2.80;;;10.50;73.50;;;;;;638843;224;26800;-74
2022/05/03 04:41:15;;;;;;;2.85;2.65;;;10.60;75.70;;;;;;638916;225;26543;-75
2022/05/03 04:43:43;;;;;;;3.20;2.95;;;10.70;79.00;;;;;;638957;224;27188;-75
2022/05/03 04:46:10;;;;;;;3.12;2.92;;;10.90;75.10;;;;;;638988;224;26542;-75
2022/05/03 04:48:40;;;;;;;4.72;3.15;;;10.90;70.10;;;;;;638902;224;26588;-75
2022/05/03 04:51:06;;;;;;;3.95;2.62;;;11.00;70.40;;;;;;638831;224;26571;-75
2022/05/03 04:53:34;;;;;;;3.12;2.85;;;11.10;69.50;;;;;;638905;224;26599;-75
2022/05/03 04:56:02;;;;;;;3.08;2.78;;;11.10;69.50;;;;;;638966;224;26558;-75
2022/05/03 04:58:29;;;;;;;2.87;2.67;;;11.00;70.40;;;;;;638990;224;26564;-75
2022/05/03 05:00:56;;;;;;;3.20;2.90;;;11.10;72.50;;;;;;638951;224;26800;-75
2022/05/03 05:03:23;;;;;;;2.85;2.65;;;11.10;68.70;;;;;;638875;222;26596;-75
2022/05/03 05:05:50;;;;;;;3.37;3.08;;;11.20;69.60;;;;;;638936;224;26781;-75
2022/05/03 05:08:18;;;;;;;2.83;2.62;;;11.20;71.90;;;;;;638937;224;26581;-75
2022/05/03 05:10:45;;;;;;;3.10;2.90;;;11.30;68.90;;;;;;639808;219;26885;-74
2022/05/03 05:13:12;;;;;;;2.78;2.58;;;11.40;69.80;;;;;;640416;224;26606;-74
2022/05/03 05:15:39;;;;;;;3.00;2.80;;;11.40;67.10;;;;;;640020;225;26740;-75
2022/05/03 05:18:06;;;;;;;2.50;2.40;;;11.40;68.00;;;;;;639910;225;26573;-74
2022/05/03 05:20:34;;;;;;;2.45;2.25;;;11.60;68.90;;;;;;639691;225;26600;-75
2022/05/03 05:23:01;;;;;;;2.83;2.53;;;11.70;66.10;;;;;;639520;224;26522;-75
2022/05/03 05:25:29;;;;;;;2.60;2.40;;;11.70;65.80;;;;;;639502;224;26758;-74
2022/05/03 05:27:56;;;;;;;2.60;2.40;;;11.80;64.80;;;;;;639638;225;26580;-75
2022/05/03 05:30:24;;;;;;;2.67;2.42;;;11.80;68.30;;;;;;639278;225;26582;-75
2022/05/03 05:32:51;;;;;;;2.78;2.60;;;11.90;68.20;;;;;;639179;224;26770;-74
2022/05/03 05:35:19;;;;;;;3.20;2.90;;;12.10;62.40;;;;;;639288;224;26514;-75
2022/05/03 05:37:47;;;;;;;2.50;2.40;;;12.10;61.60;;;;;;639252;224;26508;-66
2022/05/03 05:40:15;;;;;;;2.47;2.35;;;12.20;64.00;;;;;;639334;224;26516;-65
2022/05/03 05:42:43;;;;;;;2.78;2.58;;;12.30;62.90;;;;;;639143;224;26545;-65
2022/05/03 05:45:10;;;;;;;2.83;2.60;;;12.30;63.00;;;;;;639217;224;26506;-64
2022/05/03 05:47:40;;;;;;;2.92;2.60;;;12.50;61.50;;;;;;638959;225;26858;-64
2022/05/03 05:50:06;;;;;;;2.83;2.58;;;12.50;61.80;;;;;;638944;223;26937;-64
2022/05/03 05:55:07;;;;;;;2.10;2.00;;;12.70;60.00;;;;;;638972;224;26600;-65
2022/05/03 05:57:34;;;;;;;2.45;2.10;;;12.70;60.10;;;;;;638886;219;26581;-64
2022/05/03 06:00:02;;;;;;;2.33;2.22;;;12.80;57.50;;;;;;638951;224;26752;-64
2022/05/03 06:02:29;;;;;;;2.10;2.00;;;12.80;59.00;;;;;;638900;223;26604;-64
2022/05/03 06:04:56;;;;;;;2.55;2.35;;;13.00;58.90;;;;;;638944;224;27296;-64
2022/05/03 06:07:24;;;;;;;2.37;2.17;;;13.10;58.00;;;;;;638913;224;26552;-65
2022/05/03 06:09:51;;;;;;;2.35;2.20;;;13.10;55.80;;;;;;638925;224;26826;-64
2022/05/03 06:12:18;;;;;;;2.20;2.00;;;13.00;56.70;;;;;;638887;225;26607;-64
2022/05/03 06:14:46;;;;;;;1.92;1.83;;;13.10;55.60;;;;;;638946;223;26627;-64
2022/05/03 06:17:14;;;;;;;2.15;2.05;;;13.10;57.20;;;;;;638962;224;26558;-64
2022/05/03 06:19:42;;;;;;;2.50;2.30;;;13.10;56.10;;;;;;638942;224;26558;-64
2022/05/03 06:22:10;;;;;;;2.60;2.40;;;13.10;55.20;;;;;;639539;223;26573;-64
2022/05/03 06:24:38;;;;;;;2.37;2.10;;;13.10;55.00;;;;;;640435;223;26636;-64
2022/05/03 06:27:04;;;;;;;2.30;2.20;;;13.10;55.40;;;;;;640053;224;26507;-64
2022/05/03 06:29:32;;;;;;;1.90;1.80;;;12.80;56.00;;;;;;639932;225;26514;-64
2022/05/03 06:32:00;;;;;;;2.17;2.08;;;12.60;55.60;;;;;;639611;225;26802;-64
2022/05/03 06:34:27;;;;;;;2.47;2.12;;;12.40;57.10;;;;;;639627;224;26511;-64
2022/05/03 06:36:54;;;;;;;2.15;2.00;;;12.50;56.40;;;;;;639561;224;26735;-64
2022/05/03 06:39:22;;;;;;;2.50;2.15;;;12.70;55.70;;;;;;639595;225;26510;-65
2022/05/03 06:41:50;;;;;;;1.73;1.62;;;12.90;59.80;;;;;;639183;224;26534;-65
2022/05/03 06:44:18;;;;;;;2.30;2.10;;;13.10;57.10;;;;;;639289;223;26527;-64
2022/05/03 06:46:47;;;;;;;1.98;1.83;;;13.20;58.30;;;;;;639232;224;26562;-65
2022/05/03 06:49:13;;;;;;;2.10;2.00;;;13.10;58.10;;;;;;639217;224;26515;-64
2022/05/03 06:51:41;;;;;;;1.87;1.77;;;13.20;55.40;;;;;;639206;223;26585;-65
2022/05/03 06:54:08;;;;;;;4.78;2.10;;;13.20;55.40;;;;;;639165;224;26763;-65
2022/05/03 06:56:36;;;;;;;2.08;1.98;;;13.40;56.70;;;;;;639273;225;26563;-65
2022/05/03 06:59:04;;;;;;;1.77;1.67;;;13.60;54.90;;;;;;639035;225;26570;-65
2022/05/03 07:01:31;;;;;;;2.20;2.00;;;13.50;54.90;;;;;;638913;223;26898;-64
2022/05/03 07:03:58;;;;;;;1.87;1.75;;;13.60;56.70;;;;;;638925;224;26546;-64
2022/05/03 07:06:26;;;;;;;1.98;1.50;;;13.80;54.00;;;;;;638853;224;26986;-64
2022/05/03 07:08:53;;;;;;;1.70;1.60;;;14.00;56.60;;;;;;638786;224;26564;-64
2022/05/03 07:11:20;;;;;;;1.60;1.50;;;14.10;57.60;;;;;;638813;222;26793;-64
2022/05/03 07:13:48;;;;;;;1.65;1.55;;;14.00;56.90;;;;;;638855;224;26535;-64
2022/05/03 07:16:15;;;;;;;2.45;2.25;;;14.00;55.80;;;;;;638959;224;26535;-65
2022/05/03 07:23:48;;;;;;;3.45;1.87;;;14.50;56.10;;;;;;638538;224;26725;-69
2022/05/03 07:26:15;;;;;;;2.78;1.70;;;14.30;54.50;;;;;;638598;224;26492;-68
2022/05/03 07:28:43;;;;;;;6.15;2.28;;;14.30;56.20;;;;;;638608;225;26499;-69
2022/05/03 07:31:10;;;;;;;2.30;1.73;;;14.40;53.80;;;;;;638573;224;26746;-69
2022/05/03 07:33:37;;;;;;;2.42;2.00;;;14.60;53.10;;;;;;639072;223;26542;-69
2022/05/03 07:36:06;;;;;;;2.00;1.90;;;14.20;53.40;;;;;;640147;223;27113;-69
2022/05/03 07:38:34;;;;;;;2.03;1.80;;;14.30;53.50;;;;;;640100;224;26719;-69
2022/05/03 07:41:01;;;;;;;6.10;1.70;;;14.50;56.30;;;;;;639811;224;26566;-70
2022/05/03 07:43:29;;;;;;;2.65;1.60;;;14.50;56.00;;;;;;639695;223;26571;-69
2022/05/03 07:45:56;;;;;;;3.80;2.10;;;15.00;54.30;;;;;;640124;221;26503;-69
2022/05/03 07:48:24;;;;;;;2.15;1.80;;;14.90;53.00;;;;;;645988;221;26558;-69
2022/05/03 07:50:52;;;;;;;3.42;1.87;;;14.90;54.60;;;;;;644344;221;26591;-69
2022/05/03 07:53:19;;;;;;;1.75;1.65;;;14.90;54.60;;;;;;643924;221;26747;-69
2022/05/03 07:55:47;;;;;;;4.37;1.87;;;15.00;53.20;;;;;;641874;221;26559;-69
2022/05/03 07:58:15;;;;;;;2.95;1.65;;;14.60;51.40;;;;;;639659;222;27393;-69
2022/05/03 08:00:42;;;;;;;2.70;1.85;;;14.60;51.50;;;;;;641922;221;26595;-69
2022/05/03 08:03:10;;;;;;;3.05;1.73;;;14.50;50.80;;;;;;639605;221;26826;-68
2022/05/03 08:05:38;;;;;;;3.80;1.83;;;14.50;51.30;;;;;;638413;220;26558;-68
2022/05/03 08:08:04;;;;;;;1.83;1.70;;;14.70;50.90;;;;;;641154;221;26838;-68
2022/05/03 08:10:31;;;;;;;2.60;1.98;;;14.50;52.50;;;;;;639927;221;26518;-69
2022/05/03 08:12:59;;;;;;;1.95;1.60;;;14.60;51.70;;;;;;638605;224;26629;-69
2022/05/03 08:15:27;;;;;;;1.48;1.30;;;14.50;51.10;;;;;;637656;224;26556;-69
2022/05/03 08:17:54;;;;;;;1.60;1.50;;;14.50;51.10;;;;;;637203;222;26508;-69
2022/05/03 08:20:22;;;;;;;2.50;1.60;;;14.50;52.10;;;;;;637284;225;26510;-69
2022/05/03 08:22:49;;;;;;;2.87;1.70;;;14.70;54.20;;;;;;637291;225;26824;-69
2022/05/03 08:25:17;;;;;;;2.67;1.45;;;14.90;53.80;;;;;;637719;225;26613;-69
2022/05/03 08:27:44;;;;;;;1.92;1.30;;;14.90;51.50;;;;;;648417;221;26565;-69
2022/05/03 08:30:12;;;;;;;2.70;1.62;;;14.90;54.20;;;;;;637516;222;26594;-69
2022/05/03 08:32:38;;;;;;;4.40;1.58;;;15.10;53.10;;;;;;637771;223;26560;-69
2022/05/03 08:35:06;;;;;;;1.45;1.35;;;15.10;51.00;;;;;;638684;224;26768;-69
2022/05/03 08:42:41;;;;;;;1.80;1.30;;;15.00;50.00;;;;;;638503;225;26781;-69
2022/05/03 08:45:09;;;;;;;3.92;1.90;;;15.10;50.60;;;;;;638986;223;26773;-69
2022/05/03 08:47:35;;;;;;;4.10;1.70;;;15.20;51.00;;;;;;650087;220;26793;-70
2022/05/03 08:50:07;;;;;;;4.12;1.40;;;15.10;50.90;;;;;;649665;220;26520;-69
2022/05/03 08:52:34;;;;;;;1.67;1.15;;;15.30;51.90;;;;;;638292;224;26605;-70
2022/05/03 08:55:01;;;;;;;1.55;1.50;;;15.30;49.90;;;;;;638425;224;26814;-69
2022/05/03 08:57:28;;;;;;;2.53;1.90;;;15.40;49.80;;;;;;646637;221;26546;-71
2022/05/03 08:59:55;;;;;;;5.12;1.90;;;15.30;49.50;;;;;;639282;225;26775;-70
2022/05/03 09:02:24;;;;;;;2.90;1.50;;;15.30;50.80;;;;;;643244;221;26516;-70
2022/05/03 09:04:51;;;;;;;2.45;1.30;;;15.30;50.90;;;;;;644337;221;26592;-70
2022/05/03 09:07:20;;;;;;;2.75;1.50;;;15.30;50.20;;;;;;646901;221;26557;-70
2022/05/03 09:09:48;;;;;;;1.85;1.08;;;15.30;50.20;;;;;;639038;221;26779;-70
2022/05/03 09:12:21;;;;;;;1.30;1.27;;;15.50;50.60;;;;;;637828;221;26825;-70
2022/05/03 09:14:48;;;;;;;3.53;1.55;;;15.60;50.30;;;;;;644803;221;26567;-70
2022/05/03 09:17:16;;;;;;;1.73;1.40;;;15.60;49.80;;;;;;642006;219;26862;-69
2022/05/03 09:19:43;;;;;;;2.80;1.40;;;15.50;50.60;;;;;;647967;221;26520;-70
2022/05/03 09:24:54;;;;;;;1.83;1.60;;;15.40;49.30;;;;;;645253;221;26586;-69
2022/05/03 09:27:21;;;;;;;1.25;1.15;;;15.50;49.40;;;;;;638946;221;26793;-69
2022/05/03 09:30:01;;;;;;;1.45;1.35;;;15.60;49.00;;;;;;638513;225;26581;-70
2022/05/03 09:32:40;;;;;;;1.55;1.37;;;15.70;48.40;;;;;;639135;221;26544;-70
2022/05/03 09:35:07;;;;;;;1.15;1.10;;;15.70;48.20;;;;;;645216;221;26520;-69
2022/05/03 09:37:39;;;;;;;1.30;1.20;;;15.60;46.80;;;;;;637387;225;26496;-70
2022/05/03 09:40:08;;;;;;;1.95;1.25;;;15.60;46.80;;;;;;638618;224;26522;-70
2022/05/03 09:42:36;;;;;;;1.83;1.30;;;15.60;46.80;;;;;;650646;221;26596;-70
2022/05/03 09:45:04;;;;;;;1.20;1.10;;;15.40;46.50;;;;;;645581;221;26647;-70
2022/05/03 09:47:33;;;;;;;1.95;1.00;;;15.70;47.60;;;;;;638315;225;26794;-70
2022/05/03 09:49:58;;;;;;;2.87;1.33;;;15.80;48.50;;;;;;638493;224;26509;-70
2022/05/03 09:52:29;;;;;;;2.50;1.27;;;15.90;47.80;;;;;;648646;218;26816;-70
2022/05/03 09:55:00;;;;;;;1.40;1.30;;;16.00;47.00;;;;;;638566;225;26515;-70
2022/05/03 09:57:27;;;;;;;2.55;0.90;;;15.80;46.30;;;;;;646503;219;26572;-70
2022/05/03 09:59:54;;;;;;;1.27;1.17;;;15.70;45.80;;;;;;643064;220;27191;-69
2022/05/03 10:02:21;;;;;;;1.52;1.33;;;15.80;46.40;;;;;;639885;225;26628;-70
2022/05/03 10:04:48;;;;;;;1.00;1.00;;;15.90;46.10;;;;;;639898;221;26755;-70
2022/05/03 10:07:16;;;;;;;1.55;1.12;;;15.90;47.00;;;;;;644308;221;26546;-70
2022/05/03 10:09:43;;;;;;;3.42;1.25;;;16.00;44.80;;;;;;642488;219;26754;-65
2022/05/03 10:12:11;;;;;;;1.20;1.20;;;15.90;43.80;;;;;;639552;221;26533;-65
2022/05/03 10:14:37;;;;;;;1.67;0.90;;;16.00;43.40;;;;;;651307;219;26897;-65
2022/05/03 10:22:10;;;;;;;1.40;1.30;;;15.90;46.00;;;;;;639573;221;26562;-66
2022/05/03 10:24:54;;;;;;;1.52;1.40;;;15.90;45.60;;;;;;648241;221;26515;-65
2022/05/03 10:27:25;;;;;;;1.67;1.17;;;16.00;45.80;;;;;;638466;225;26578;-64
2022/05/03 10:30:19;;;;;;;1.60;1.50;;;16.00;45.80;;;;;;638815;222;26564;-66
2022/05/03 10:32:44;;;;;;;1.70;1.55;;;16.00;45.80;;;;;;649327;220;26585;-65
2022/05/03 10:35:24;;;;;;;2.90;1.40;;;16.00;46.10;;;;;;639869;221;26727;-65
2022/05/03 10:38:05;;;;;;;1.33;1.23;;;16.20;46.50;;;;;;641192;221;26590;-65
2022/05/03 10:40:34;;;;;;;1.15;1.12;;;16.20;46.50;;;;;;640622;221;26787;-64
2022/05/03 10:43:20;;;;;;;1.02;1.02;;;16.30;44.90;;;;;;646637;221;26525;-66
2022/05/03 10:45:48;;;;;;;1.98;1.30;;;16.30;44.90;;;;;;638455;225;26539;-65
2022/05/03 10:48:33;;;;;;;1.20;1.20;;;16.40;45.10;;;;;;649060;221;26521;-65
2022/05/03 10:50:59;;;;;;;1.15;1.15;;;16.50;44.80;;;;;;638519;224;26486;-64
2022/05/03 10:53:26;;;;;;;1.35;1.08;;;16.60;45.00;;;;;;638310;225;26504;-64
2022/05/03 10:56:01;;;;;;;1.80;1.48;;;16.70;45.10;;;;;;639170;224;26529;-64
2022/05/03 10:58:30;;;;;;;1.00;1.00;;;16.50;44.60;;;;;;637900;221;26471;-65
2022/05/03 11:01:02;;;;;;;1.20;1.20;;;16.50;44.30;;;;;;642968;221;26478;-65
2022/05/03 11:03:29;;;;;;;1.30;1.20;;;16.50;44.30;;;;;;643540;218;26532;-64
2022/05/03 11:06:08;;;;;;;1.35;1.20;;;16.50;44.30;;;;;;637617;225;26800;-64
2022/05/03 11:08:36;;;;;;;0.90;0.90;;;16.60;45.30;;;;;;649518;218;26751;-64
2022/05/03 11:11:02;;;;;;;1.30;1.20;;;16.70;44.20;;;;;;639230;224;26800;-65
2022/05/03 11:13:35;;;;;;;1.58;1.20;;;16.80;44.30;;;;;;646491;220;26781;-65
2022/05/03 11:16:14;;;;;;;1.33;0.95;;;16.90;44.40;;;;;;641027;221;26783;-65
2022/05/03 11:18:42;;;;;;;1.33;1.23;;;16.80;44.40;;;;;;649140;220;26517;-65
2022/05/03 11:21:14;;;;;;;1.12;1.10;;;17.00;45.40;;;;;;639335;224;26581;-65
2022/05/03 11:23:51;;;;;;;1.23;1.10;;;17.00;45.40;;;;;;639246;224;26576;-65
2022/05/03 11:26:19;;;;;;;1.33;0.98;;;17.10;45.90;;;;;;640328;221;26720;-65
2022/05/03 11:28:48;;;;;;;1.80;1.10;;;17.00;44.10;;;;;;647417;221;26515;-67
2022/05/03 11:31:15;;;;;;;10.93;3.15;;;17.00;44.10;;;;;;643984;221;26512;-67
2022/05/03 11:33:48;;;;;;;684.85;64.05;;;17.00;44.70;;;;;;642120;221;27223;-67
2022/05/03 11:36:15;;;;;;;1999.90;326.90;;;17.10;45.30;;;;;;639318;221;26805;-78
2022/05/03 11:38:42;;;;;;;747.28;64.65;;;17.20;44.40;;;;;;647832;221;26515;-75
2022/05/03 11:41:10;;;;;;;119.87;24.50;;;17.30;44.90;;;;;;638338;223;26562;-75
2022/05/03 11:43:37;;;;;;;16.83;5.50;;;17.30;46.20;;;;;;638178;225;26789;-75
2022/05/03 11:46:05;;;;;;;1.77;1.67;;;17.30;44.80;;;;;;642933;221;26531;-75
2022/05/03 11:48:33;;;;;;;5.22;2.28;;;17.30;44.10;;;;;;638165;224;26529;-73
2022/05/03 11:56:08;;;;;;;1.15;0.98;;;17.30;44.50;;;;;;638266;225;26535;-72
2022/05/03 11:58:33;;;;;;;1.37;0.80;;;17.40;44.00;;;;;;638281;224;26546;-74
2022/05/03 12:01:00;;;;;;;5.18;2.17;;;17.70;44.00;;;;;;638597;223;26507;-72
2022/05/03 12:03:27;;;;;;;2.10;1.55;;;18.00;45.50;;;;;;638374;223;26782;-73
2022/05/03 12:05:57;;;;;;;0.80;0.80;;;18.40;44.60;;;;;;638599;224;26487;-72
2022/05/03 12:08:25;;;;;;;1.45;1.20;;;18.50;44.60;;;;;;638553;224;26540;-72
2022/05/03 12:10:52;;;;;;;3.65;1.70;;;18.50;43.90;;;;;;638621;225;26504;-71
2022/05/03 12:13:30;;;;;;;0.80;0.77;;;18.50;43.80;;;;;;638544;225;26795;-73
2022/05/03 12:16:06;;;;;;;1.67;1.08;;;18.50;46.00;;;;;;638640;225;26494;-72
2022/05/03 12:18:37;;;;;;;1.95;1.30;;;18.50;43.90;;;;;;638578;225;26496;-71
2022/05/03 12:21:06;;;;;;;1.50;1.40;;;19.20;44.10;;;;;;639817;223;26588;-71
2022/05/03 12:23:41;;;;;;;2.65;1.10;;;19.10;44.00;;;;;;639826;225;26560;-71
2022/05/03 12:26:15;;;;;;;1.12;1.00;;;19.60;43.50;;;;;;639576;224;26772;-72
2022/05/03 12:28:44;;;;;;;1.02;0.90;;;19.80;43.00;;;;;;639431;225;26510;-71
2022/05/03 12:31:12;;;;;;;1.23;1.00;;;19.80;43.00;;;;;;639238;225;26562;-71
2022/05/03 12:33:41;;;;;;;1.58;1.30;;;19.70;42.70;;;;;;639265;225;26633;-72
2022/05/03 12:36:09;;;;;;;2.47;1.12;;;20.10;42.50;;;;;;639207;225;26559;-71
2022/05/03 12:38:46;;;;;;;1.10;0.90;;;20.10;42.50;;;;;;639069;225;26776;-72
2022/05/03 12:41:22;;;;;;;1.10;0.93;;;20.70;42.00;;;;;;638936;225;26781;-73
2022/05/03 12:43:58;;;;;;;0.90;0.90;;;21.90;41.00;;;;;;638513;224;26562;-71
2022/05/03 12:46:27;;;;;;;0.90;0.88;;;21.80;40.90;;;;;;638917;225;26860;-72
2022/05/03 12:48:54;;;;;;;1.90;1.10;;;21.40;42.50;;;;;;638888;225;26787;-73
2022/05/03 12:51:21;;;;;;;2.50;1.00;;;20.80;41.10;;;;;;638882;224;26575;-72
2022/05/03 12:53:48;;;;;;;1.02;1.00;;;20.30;41.70;;;;;;638957;225;26805;-72
2022/05/03 12:58:48;;;;;;;0.80;0.80;;;19.50;42.70;;;;;;638597;225;26504;-73
2022/05/03 13:01:15;;;;;;;0.70;0.70;;;20.20;42.10;;;;;;638578;225;26510;-72
2022/05/03 13:03:42;;;;;;;0.90;0.90;;;20.90;42.20;;;;;;638580;225;26818;-71
2022/05/03 13:06:10;;;;;;;0.80;0.80;;;21.50;41.70;;;;;;638604;224;26523;-71
2022/05/03 13:08:37;;;;;;;1.70;0.93;;;21.90;41.60;;;;;;638655;224;26764;-74
2022/05/03 13:11:05;;;;;;;1.10;1.10;;;22.80;40.50;;;;;;639685;221;26524;-72
2022/05/03 13:13:33;;;;;;;1.12;0.90;;;23.60;40.90;;;;;;637556;224;26592;-73
2022/05/03 13:16:01;;;;;;;0.62;0.62;;;24.10;40.30;;;;;;638570;224;26577;-76
2022/05/03 13:18:30;;;;;;;5.07;1.40;;;24.00;39.00;;;;;;638604;225;26523;-73
2022/05/03 13:20:56;;;;;;;1.25;1.05;;;24.00;38.90;;;;;;638575;223;26518;-75
2022/05/03 13:23:23;;;;;;;1.00;0.90;;;23.10;39.10;;;;;;638568;225;26539;-76
2022/05/03 13:25:51;;;;;;;2.37;0.90;;;22.30;40.60;;;;;;638579;224;26775;-77
2022/05/03 13:28:19;;;;;;;0.82;0.80;;;22.30;40.60;;;;;;638611;224;26844;-75
2022/05/03 13:30:47;;;;;;;0.88;0.88;;;23.10;40.10;;;;;;638597;223;26527;-76
2022/05/03 13:33:14;;;;;;;1.73;0.95;;;23.30;39.10;;;;;;640354;223;26542;-76
2022/05/03 13:40:48;;;;;;;1.15;1.00;;;26.00;36.70;;;;;;638235;225;26531;-76
2022/05/03 13:43:17;;;;;;;13.45;4.62;;;29.30;33.40;;;;;;638022;224;26628;-74